Time;durP1;ratioP1;P1;durP2;ratioP2;P2;SDS_P1;SDS_P2;PMS_P1;PMS_P2;Temp;Humidity;BMP_temperature;BMP_pressure;BME280_temperature;BME280_humidity;BME280_pressure;Samples;Min_cycle;Max_cycle;Signal;HPM_P1;HPM_P2
2022/06/13 00:00:17;;;;;;;;;;;24.60;85.40;24.60;99830.00;;;;347173;28;89100;-89
2022/06/13 00:00:30;;;;;;;;;;;24.60;85.60;24.40;99836.00;;;;344421;28;83520;-89
2022/06/13 00:00:42;;;;;;;;;;;24.60;86.30;24.50;99838.00;;;;346932;27;90147;-89
2022/06/13 00:00:54;;;;;;;;;;;24.60;86.30;24.50;99826.00;;;;347578;27;82664;-88
2022/06/13 00:01:09;;;;;;;;;;;24.60;86.10;24.60;99833.00;;;;347047;28;91338;-89
2022/06/13 00:01:24;;;;;;;;;;;24.60;86.20;24.60;99833.00;;;;344670;28;83476;-89
2022/06/13 00:01:36;;;;;;;;;;;24.60;86.10;24.60;99833.00;;;;348333;27;91271;-89
2022/06/13 00:01:48;;;;;;;;;;;24.60;86.10;24.70;99839.00;;;;347165;28;84315;-89
2022/06/13 00:02:00;;;;;;;;;;;24.60;85.80;24.70;99832.00;;;;349657;27;92727;-89
2022/06/13 00:02:12;;;;;;;;;;;24.60;85.90;24.70;99835.00;;;;347446;28;83455;-89
2022/06/13 00:02:24;;;;;;;;;;;24.60;85.90;24.80;99832.00;;;;347005;28;91713;-89
2022/06/13 00:02:36;;;;;;;;;;;24.70;85.90;24.80;99828.00;;;;346176;28;83457;-89
2022/06/13 00:02:48;;;;;;;;;;;24.70;85.70;24.80;99830.00;;;;348504;27;90832;-89
2022/06/13 00:02:59;;;;;;;;;;;24.70;85.60;24.80;99839.00;;;;348777;27;82598;-89
2022/06/13 00:03:17;;;;;;;;;;;24.60;85.50;24.70;99837.00;;;;347118;28;89046;-89
2022/06/13 00:03:29;;;;;;;;;;;24.70;85.90;24.60;99832.00;;;;348440;27;83480;-89
2022/06/13 00:03:41;;;;;;;;;;;24.60;85.80;24.60;99832.00;;;;347324;27;87638;-89
2022/06/13 00:03:53;;;;;;;;;;;24.60;85.80;24.60;99834.00;;;;347941;27;83340;-89
2022/06/13 00:04:05;;;;;;;;;;;24.70;85.90;24.60;99835.00;;;;348343;27;92491;-89
2022/06/13 00:04:16;;;;;;;;;;;24.60;85.80;24.50;99833.00;;;;346135;28;83364;-89
2022/06/13 00:04:28;;;;;;;;;;;24.60;86.10;24.60;99831.00;;;;345466;28;92318;-89
2022/06/13 00:04:40;;;;;;;;;;;24.60;85.80;24.50;99836.00;;;;348703;27;83354;-89
2022/06/13 00:04:52;;;;;;;;;;;24.60;86.20;24.40;99830.00;;;;348216;27;91637;-89
2022/06/13 00:05:04;;;;;;;;;;;24.60;86.30;24.40;99833.00;;;;347173;28;82536;-89
2022/06/13 00:05:16;;;;;;;;;;;24.60;86.10;24.50;99829.00;;;;346965;28;90111;-89
2022/06/13 00:05:28;;;;;;;;;;;24.60;86.00;24.50;99837.00;;;;347432;28;83232;-89
2022/06/13 00:05:40;;;;;;;;;;;24.60;86.20;24.40;99833.00;;;;347127;28;90179;-89
2022/06/13 00:05:51;;;;;;;;;;;24.50;86.10;24.40;99839.00;;;;350271;27;83386;-88
2022/06/13 00:06:03;;;;;;;;;;;24.60;86.10;24.40;99834.00;;;;348280;27;93076;-89
2022/06/13 00:06:15;;;;;;;;;;;24.60;86.10;24.50;99838.00;;;;347505;28;83319;-89
2022/06/13 00:06:27;;;;;;;;;;;24.50;86.50;24.40;99837.00;;;;345243;28;90215;-89
2022/06/13 00:06:39;;;;;;;;;;;24.50;86.50;24.50;99837.00;;;;345930;28;83428;-89
2022/06/13 00:06:51;;;;;;;;;;;24.50;86.20;24.60;99838.00;;;;344214;28;91314;-88
2022/06/13 00:07:03;;;;;;;;;;;24.50;86.00;24.60;99834.00;;;;346172;28;83389;-89
2022/06/13 00:07:15;;;;;;;;;;;24.50;86.00;24.60;99835.00;;;;347054;28;91179;-89
2022/06/13 00:07:27;;;;;;;;;;;24.60;86.10;24.50;99830.00;;;;348808;27;82614;-88
2022/06/13 00:07:39;;;;;;;;;;;24.60;86.40;24.60;99836.00;;;;347072;28;90467;-89
2022/06/13 00:07:51;;;;;;;;;;;24.50;86.20;24.60;99838.00;;;;346158;28;83305;-89
2022/06/13 00:08:03;;;;;;;;;;;24.50;86.00;24.60;99834.00;;;;345498;28;92880;-89
2022/06/13 00:08:15;;;;;;;;;;;24.50;86.10;24.40;99839.00;;;;346105;28;83189;-90
2022/06/13 00:08:27;;;;;;;;;;;24.50;86.40;24.50;99833.00;;;;345669;28;91438;-89
2022/06/13 00:08:39;;;;;;;;;;;24.60;86.50;24.50;99839.00;;;;347307;28;83265;-89
2022/06/13 00:08:50;;;;;;;;;;;24.50;86.30;24.50;99830.00;;;;348421;27;91666;-89
2022/06/13 00:09:04;;;;;;;;;;;24.50;86.30;24.50;99833.00;;;;346175;28;83483;-89
2022/06/13 00:09:16;;;;;;;;;;;24.60;86.20;24.60;99826.00;;;;348463;27;91254;-89
2022/06/13 00:09:27;;;;;;;;;;;24.50;86.00;24.60;99828.00;;;;346082;28;83644;-89
2022/06/13 00:09:39;;;;;;;;;;;24.50;86.00;24.60;99840.00;;;;344185;28;92331;-89
2022/06/13 00:09:51;;;;;;;;;;;24.50;86.00;24.60;99828.00;;;;348831;27;83271;-89
2022/06/13 00:10:03;;;;;;;;;;;24.50;86.00;24.50;99830.00;;;;344250;28;91482;-89
2022/06/13 00:10:14;;;;;;;;;;;24.50;86.20;24.60;99831.00;;;;344735;28;83497;-90
2022/06/13 00:10:26;;;;;;;;;;;24.50;85.90;24.60;99828.00;;;;346905;28;91459;-89
2022/06/13 00:10:38;;;;;;;;;;;24.60;86.10;24.60;99831.00;;;;347319;28;83302;-89
2022/06/13 00:10:50;;;;;;;;;;;24.50;86.50;24.60;99831.00;;;;345629;28;91944;-89
2022/06/13 00:11:02;;;;;;;;;;;24.60;86.20;24.60;99839.00;;;;347611;28;82493;-89
2022/06/13 00:11:15;;;;;;;;;;;24.60;86.80;24.40;99836.00;;;;348543;27;90394;-89
2022/06/13 00:11:27;;;;;;;;;;;24.60;87.30;24.50;99830.00;;;;347510;28;83214;-89
2022/06/13 00:11:40;;;;;;;;;;;24.60;86.90;24.50;99833.00;;;;345241;28;90877;-89
2022/06/13 00:11:51;;;;;;;;;;;24.50;86.90;24.40;99833.00;;;;347541;28;83261;-89
2022/06/13 00:12:04;;;;;;;;;;;24.50;87.10;24.40;99834.00;;;;346978;28;92349;-89
2022/06/13 00:12:15;;;;;;;;;;;24.50;87.30;24.40;99834.00;;;;347211;28;83197;-89
2022/06/13 00:12:27;;;;;;;;;;;24.50;87.30;24.40;99832.00;;;;346486;28;90084;-89
2022/06/13 00:12:40;;;;;;;;;;;24.50;87.40;24.40;99842.00;;;;347284;28;82389;-89
2022/06/13 00:12:51;;;;;;;;;;;24.50;87.10;24.40;99836.00;;;;348384;27;90344;-89
2022/06/13 00:13:04;;;;;;;;;;;24.50;87.20;24.30;99839.00;;;;347443;28;83083;-89
2022/06/13 00:13:16;;;;;;;;;;;24.50;87.40;24.30;99832.00;;;;347047;28;91565;-89
2022/06/13 00:13:27;;;;;;;;;;;24.50;87.40;24.30;99830.00;;;;346016;28;83439;-89
2022/06/13 00:13:44;;;;;;;;;;;24.50;87.30;24.30;99833.00;;;;344295;28;91288;-89
2022/06/13 00:13:56;;;;;;;;;;;24.50;87.60;24.30;99830.00;;;;348899;27;83452;-89
2022/06/13 00:14:08;;;;;;;;;;;24.50;87.30;24.30;99836.00;;;;346969;28;92127;-89
2022/06/13 00:14:19;;;;;;;;;;;24.50;87.20;24.40;99834.00;;;;347593;28;83201;-89
2022/06/13 00:14:31;;;;;;;;;;;24.50;87.40;24.20;99837.00;;;;348459;27;92112;-89
2022/06/13 00:14:43;;;;;;;;;;;24.50;87.80;24.20;99841.00;;;;346035;28;83225;-89
2022/06/13 00:14:55;;;;;;;;;;;24.40;87.80;24.20;99840.00;;;;345729;28;91643;-89
2022/06/13 00:15:07;;;;;;;;;;;24.40;87.80;24.20;99837.00;;;;346143;28;82544;-89
2022/06/13 00:15:19;;;;;;;;;;;24.40;87.90;24.30;99836.00;;;;346769;28;89303;-89
2022/06/13 00:15:31;;;;;;;;;;;24.40;88.00;24.30;99841.00;;;;347250;28;82553;-89
2022/06/13 00:15:43;;;;;;;;;;;24.40;88.00;24.30;99840.00;;;;345482;28;91356;-89
2022/06/13 00:15:54;;;;;;;;;;;24.40;87.90;24.20;99842.00;;;;348257;27;82557;-89
2022/06/13 00:16:06;;;;;;;;;;;24.40;88.00;24.30;99846.00;;;;348270;27;93170;-89
2022/06/13 00:16:18;;;;;;;;;;;24.40;88.20;24.30;99831.00;;;;347513;28;83373;-89
2022/06/13 00:16:31;;;;;;;;;;;24.40;88.20;24.20;99833.00;;;;345566;28;91301;-89
2022/06/13 00:16:43;;;;;;;;;;;24.40;88.30;24.30;99837.00;;;;346087;28;83641;-89
2022/06/13 00:16:55;;;;;;;;;;;24.40;88.20;24.20;99841.00;;;;345609;28;91356;-89
2022/06/13 00:17:06;;;;;;;;;;;24.40;88.30;24.30;99843.00;;;;345875;28;83576;-89
2022/06/13 00:17:18;;;;;;;;;;;24.40;88.10;24.30;99849.00;;;;348352;27;90629;-89
2022/06/13 00:17:30;;;;;;;;;;;24.40;88.00;24.30;99845.00;;;;348951;27;83396;-90
2022/06/13 00:17:42;;;;;;;;;;;24.40;88.00;24.30;99839.00;;;;348396;27;91495;-89
2022/06/13 00:17:54;;;;;;;;;;;24.40;88.00;24.30;99851.00;;;;347358;28;83318;-88
2022/06/13 00:18:06;;;;;;;;;;;24.40;88.10;24.30;99849.00;;;;349762;27;91364;-89
2022/06/13 00:18:18;;;;;;;;;;;24.40;88.20;24.20;99846.00;;;;347338;28;82431;-89
2022/06/13 00:18:29;;;;;;;;;;;24.40;88.50;24.20;99845.00;;;;346798;28;92471;-88
2022/06/13 00:18:47;;;;;;;;;;;24.30;88.40;24.20;99843.00;;;;347257;28;83596;-88
2022/06/13 00:18:59;;;;;;;;;;;24.40;88.50;24.30;99849.00;;;;345638;28;89125;-88
2022/06/13 00:19:11;;;;;;;;;;;24.40;88.20;24.20;99845.00;;;;345814;28;83144;-89
2022/06/13 00:19:23;;;;;;;;;;;24.40;88.70;24.10;99846.00;;;;347255;27;90049;-89
2022/06/13 00:19:35;;;;;;;;;;;24.30;88.90;24.20;99851.00;;;;347566;28;83299;-89
2022/06/13 00:19:47;;;;;;;;;;;24.30;88.60;24.20;99842.00;;;;346959;28;91605;-89
2022/06/13 00:19:58;;;;;;;;;;;24.30;88.50;24.20;99847.00;;;;344828;28;82462;-88
2022/06/13 00:20:10;;;;;;;;;;;24.30;88.80;24.20;99842.00;;;;345617;28;92175;-89
2022/06/13 00:20:22;;;;;;;;;;;24.30;88.90;24.10;99841.00;;;;347526;28;83393;-89
2022/06/13 00:20:34;;;;;;;;;;;24.30;88.80;24.20;99847.00;;;;344304;28;89015;-88
2022/06/13 00:20:45;;;;;;;;;;;24.30;88.70;24.20;99848.00;;;;346078;28;83393;-89
2022/06/13 00:20:57;;;;;;;;;;;24.30;88.90;24.10;99846.00;;;;347018;28;90210;-89
2022/06/13 00:21:09;;;;;;;;;;;24.30;88.90;24.20;99851.00;;;;346218;28;82345;-88
2022/06/13 00:21:22;;;;;;;;;;;24.30;88.90;24.20;99846.00;;;;345648;28;91406;-88
2022/06/13 00:21:35;;;;;;;;;;;24.30;88.80;24.00;99848.00;;;;345933;28;82432;-88
2022/06/13 00:21:47;;;;;;;;;;;24.30;89.10;24.10;99845.00;;;;346622;28;90284;-89
2022/06/13 00:21:58;;;;;;;;;;;24.20;88.80;24.10;99839.00;;;;346075;28;82429;-88
2022/06/13 00:22:10;;;;;;;;;;;24.20;89.50;24.20;99847.00;;;;345583;28;93265;-89
2022/06/13 00:22:22;;;;;;;;;;;24.20;89.00;24.10;99841.00;;;;345980;28;83380;-88
2022/06/13 00:22:34;;;;;;;;;;;24.20;89.20;24.00;99842.00;;;;347123;28;90790;-89
2022/06/13 00:22:46;;;;;;;;;;;24.20;89.30;24.10;99841.00;;;;347367;28;83388;-89
2022/06/13 00:22:57;;;;;;;;;;;24.20;89.10;24.10;99840.00;;;;345673;28;92218;-88
2022/06/13 00:23:09;;;;;;;;;;;24.20;89.10;24.10;99849.00;;;;348921;27;83385;-88
2022/06/13 00:23:21;;;;;;;;;;;24.20;89.10;24.10;99837.00;;;;344155;28;90638;-88
2022/06/13 00:23:35;;;;;;;;;;;24.20;89.20;24.00;99843.00;;;;347601;28;82449;-88
2022/06/13 00:23:49;;;;;;;;;;;24.20;89.40;23.90;99845.00;;;;346992;28;91299;-89
2022/06/13 00:24:01;;;;;;;;;;;24.20;89.40;24.00;99840.00;;;;346082;28;82409;-89
2022/06/13 00:24:13;;;;;;;;;;;24.20;89.30;24.10;99841.00;;;;346973;28;91190;-88
2022/06/13 00:24:25;;;;;;;;;;;24.20;89.20;24.00;99837.00;;;;348315;27;83498;-88
2022/06/13 00:24:36;;;;;;;;;;;24.10;89.50;24.10;99835.00;;;;344109;28;90215;-88
2022/06/13 00:24:48;;;;;;;;;;;24.20;89.50;24.10;99841.00;;;;348815;27;83595;-89
2022/06/13 00:25:00;;;;;;;;;;;24.20;89.50;24.00;99851.00;;;;348462;27;90402;-89
2022/06/13 00:25:12;;;;;;;;;;;24.20;89.40;24.00;99840.00;;;;348928;27;83163;-89
2022/06/13 00:25:24;;;;;;;;;;;24.20;89.50;24.00;99841.00;;;;348369;27;89273;-88
2022/06/13 00:25:35;;;;;;;;;;;24.20;89.40;24.00;99840.00;;;;346129;28;82321;-88
2022/06/13 00:25:47;;;;;;;;;;;24.20;89.50;23.90;99843.00;;;;345394;28;91341;-88
2022/06/13 00:26:00;;;;;;;;;;;24.10;89.80;24.00;99839.00;;;;346039;28;82453;-89
2022/06/13 00:26:11;;;;;;;;;;;24.10;90.00;24.00;99841.00;;;;345442;28;92777;-88
2022/06/13 00:26:25;;;;;;;;;;;24.10;89.40;24.10;99837.00;;;;346102;28;82588;-89
2022/06/13 00:26:37;;;;;;;;;;;24.20;89.30;24.10;99836.00;;;;344281;28;91601;-88
2022/06/13 00:26:48;;;;;;;;;;;24.10;89.20;24.10;99836.00;;;;347436;28;82465;-88
2022/06/13 00:27:00;;;;;;;;;;;24.20;89.20;24.10;99841.00;;;;345456;28;91066;-88
2022/06/13 00:27:12;;;;;;;;;;;24.20;89.50;24.10;99839.00;;;;347288;28;82351;-89
2022/06/13 00:27:24;;;;;;;;;;;24.20;89.50;24.00;99841.00;;;;346109;28;90760;-89
2022/06/13 00:27:36;;;;;;;;;;;24.10;89.40;24.00;99839.00;;;;344914;28;82501;-88
2022/06/13 00:27:48;;;;;;;;;;;24.10;89.30;24.00;99844.00;;;;345529;28;90837;-88
2022/06/13 00:28:00;;;;;;;;;;;24.10;89.10;24.10;99843.00;;;;345924;28;83495;-88
2022/06/13 00:28:11;;;;;;;;;;;24.10;89.00;24.00;99845.00;;;;347006;28;91450;-88
2022/06/13 00:28:23;;;;;;;;;;;24.10;89.40;24.10;99838.00;;;;347284;28;83546;-88
2022/06/13 00:28:35;;;;;;;;;;;24.10;89.40;24.10;99841.00;;;;345578;28;92018;-88
2022/06/13 00:28:48;;;;;;;;;;;24.10;89.60;24.10;99845.00;;;;345978;28;83276;-89
2022/06/13 00:29:00;;;;;;;;;;;24.10;89.50;24.10;99832.00;;;;345782;28;87706;-88
2022/06/13 00:29:11;;;;;;;;;;;24.10;89.60;24.10;99832.00;;;;347556;28;83339;-88
2022/06/13 00:29:23;;;;;;;;;;;24.10;89.40;24.10;99846.00;;;;349701;27;90889;-89
2022/06/13 00:29:36;;;;;;;;;;;24.10;89.30;24.10;99841.00;;;;348681;27;83376;-89
2022/06/13 00:29:49;;;;;;;;;;;24.10;89.50;24.10;99839.00;;;;346980;28;91649;-89
2022/06/13 00:30:03;;;;;;;;;;;24.10;89.50;24.10;99836.00;;;;344597;28;83623;-88
2022/06/13 00:30:15;;;;;;;;;;;24.10;89.60;24.00;99840.00;;;;345565;28;91203;-88
2022/06/13 00:30:27;;;;;;;;;;;24.10;89.80;24.00;99834.00;;;;346818;28;83482;-88
2022/06/13 00:30:38;;;;;;;;;;;24.10;89.80;23.90;99842.00;;;;348248;27;90385;-88
2022/06/13 00:30:50;;;;;;;;;;;24.00;89.60;23.90;99839.00;;;;347526;27;83465;-89
2022/06/13 00:31:02;;;;;;;;;;;24.00;89.70;24.00;99841.00;;;;345739;28;91110;-88
2022/06/13 00:31:14;;;;;;;;;;;24.00;89.40;24.00;99843.00;;;;347443;28;82283;-89
2022/06/13 00:31:26;;;;;;;;;;;24.00;89.20;24.00;99838.00;;;;346877;28;91066;-89
2022/06/13 00:31:38;;;;;;;;;;;24.00;89.40;24.00;99843.00;;;;347494;28;82470;-89
2022/06/13 00:31:50;;;;;;;;;;;24.00;89.60;24.00;99840.00;;;;346895;28;91069;-89
2022/06/13 00:32:02;;;;;;;;;;;24.00;89.60;24.10;99840.00;;;;345962;28;82440;-88
2022/06/13 00:32:14;;;;;;;;;;;24.00;89.50;24.10;99838.00;;;;347071;28;89103;-89
2022/06/13 00:32:26;;;;;;;;;;;24.00;89.50;24.10;99833.00;;;;347420;28;83232;-89
2022/06/13 00:32:38;;;;;;;;;;;24.00;89.60;24.10;99836.00;;;;346939;28;91403;-89
2022/06/13 00:32:50;;;;;;;;;;;24.00;89.90;24.00;99836.00;;;;347456;28;83545;-89
2022/06/13 00:33:02;;;;;;;;;;;24.00;89.90;24.00;99841.00;;;;347013;28;91315;-89
2022/06/13 00:33:13;;;;;;;;;;;24.00;89.90;24.00;99844.00;;;;350291;27;82460;-88
2022/06/13 00:33:25;;;;;;;;;;;24.00;89.90;24.00;99837.00;;;;347960;27;91188;-89
2022/06/13 00:33:37;;;;;;;;;;;24.00;89.90;24.00;99837.00;;;;347980;27;82483;-89
2022/06/13 00:33:49;;;;;;;;;;;24.00;90.00;24.00;99841.00;;;;348159;27;90478;-89
2022/06/13 00:34:01;;;;;;;;;;;24.00;89.90;24.10;99838.00;;;;347434;27;83262;-89
2022/06/13 00:34:12;;;;;;;;;;;24.00;89.90;24.10;99836.00;;;;345614;28;91690;-89
2022/06/13 00:34:24;;;;;;;;;;;24.00;89.90;24.10;99838.00;;;;347821;27;83453;-89
2022/06/13 00:34:36;;;;;;;;;;;24.00;89.80;24.10;99847.00;;;;347073;28;91209;-88
2022/06/13 00:34:48;;;;;;;;;;;24.00;89.70;24.10;99847.00;;;;347427;28;83411;-89
2022/06/13 00:35:00;;;;;;;;;;;24.00;89.60;24.10;99840.00;;;;347088;28;90414;-89
2022/06/13 00:35:11;;;;;;;;;;;24.00;89.50;23.90;99843.00;;;;346017;28;83435;-88
2022/06/13 00:35:23;;;;;;;;;;;24.00;89.90;24.00;99844.00;;;;348278;27;91435;-89
2022/06/13 00:35:35;;;;;;;;;;;24.00;90.00;24.00;99840.00;;;;346059;28;83367;-89
2022/06/13 00:35:47;;;;;;;;;;;24.00;90.00;24.10;99837.00;;;;345429;28;88674;-89
2022/06/13 00:35:59;;;;;;;;;;;24.00;90.00;23.80;99843.00;;;;347062;28;83542;-88
2022/06/13 00:36:10;;;;;;;;;;;24.00;90.10;23.80;99842.00;;;;344168;28;93050;-89
2022/06/13 00:36:23;;;;;;;;;;;24.00;90.00;24.00;99847.00;;;;346975;28;83331;-89
2022/06/13 00:36:35;;;;;;;;;;;24.00;89.90;24.00;99846.00;;;;344404;28;91489;-89
2022/06/13 00:36:46;;;;;;;;;;;24.00;89.90;23.90;99842.00;;;;346087;28;83382;-89
2022/06/13 00:36:58;;;;;;;;;;;24.00;90.10;23.90;99845.00;;;;346969;28;90999;-89
2022/06/13 00:37:10;;;;;;;;;;;24.00;90.30;23.90;99840.00;;;;346090;28;82350;-89
2022/06/13 00:37:22;;;;;;;;;;;24.00;90.10;23.90;99841.00;;;;345444;28;90159;-89
2022/06/13 00:37:33;;;;;;;;;;;24.00;90.40;23.90;99844.00;;;;347267;28;83614;-88
2022/06/13 00:37:45;;;;;;;;;;;24.00;90.30;23.90;99845.00;;;;347035;28;91537;-89
2022/06/13 00:37:57;;;;;;;;;;;24.00;90.20;23.90;99843.00;;;;347309;28;83426;-89
2022/06/13 00:38:10;;;;;;;;;;;24.00;90.10;23.90;99847.00;;;;345613;28;92276;-88
2022/06/13 00:38:21;;;;;;;;;;;24.00;90.10;23.80;99838.00;;;;348771;27;82494;-89
2022/06/13 00:38:33;;;;;;;;;;;24.00;90.20;23.80;99843.00;;;;345678;28;89985;-89
2022/06/13 00:38:45;;;;;;;;;;;24.00;90.30;23.80;99841.00;;;;347390;28;83462;-88
2022/06/13 00:38:57;;;;;;;;;;;24.00;90.40;23.80;99837.00;;;;347003;28;91319;-89
2022/06/13 00:39:08;;;;;;;;;;;23.90;90.30;23.80;99839.00;;;;346160;28;83368;-88
2022/06/13 00:39:20;;;;;;;;;;;23.90;90.20;23.80;99841.00;;;;345325;28;91719;-89
2022/06/13 00:39:32;;;;;;;;;;;23.90;90.30;23.80;99840.00;;;;347452;28;82535;-88
2022/06/13 00:39:44;;;;;;;;;;;23.90;90.20;23.90;99840.00;;;;345377;28;89581;-89
2022/06/13 00:39:55;;;;;;;;;;;23.90;90.50;23.80;99839.00;;;;344087;28;83373;-89
2022/06/13 00:40:08;;;;;;;;;;;23.90;90.20;23.90;99844.00;;;;345533;28;92578;-89
2022/06/13 00:40:19;;;;;;;;;;;23.90;90.20;23.90;99838.00;;;;347487;28;83320;-89
2022/06/13 00:40:32;;;;;;;;;;;23.90;90.20;23.90;99839.00;;;;344233;28;90514;-89
2022/06/13 00:40:44;;;;;;;;;;;23.90;90.20;23.90;99842.00;;;;343418;28;82474;-89
2022/06/13 00:40:56;;;;;;;;;;;23.90;90.20;23.90;99842.00;;;;345588;28;91895;-89
2022/06/13 00:41:11;;;;;;;;;;;23.90;90.20;23.80;99839.00;;;;344744;28;83324;-88
2022/06/13 00:41:25;;;;;;;;;;;23.90;90.30;23.80;99840.00;;;;342865;28;91535;-89
2022/06/13 00:41:38;;;;;;;;;;;23.90;90.20;23.80;99840.00;;;;346172;28;82542;-89
2022/06/13 00:41:51;;;;;;;;;;;23.90;90.20;23.80;99838.00;;;;344174;28;91097;-89
2022/06/13 00:42:03;;;;;;;;;;;23.90;90.20;23.80;99843.00;;;;347491;28;82445;-88
2022/06/13 00:42:17;;;;;;;;;;;23.90;90.40;23.80;99842.00;;;;345574;28;92610;-88
2022/06/13 00:42:28;;;;;;;;;;;23.90;90.40;23.80;99836.00;;;;347903;27;82311;-88
2022/06/13 00:42:40;;;;;;;;;;;23.90;90.40;23.80;99838.00;;;;343837;28;91889;-89
2022/06/13 00:42:52;;;;;;;;;;;23.80;90.40;23.80;99837.00;;;;340218;28;83389;-89
2022/06/13 00:43:06;;;;;;;;;;;23.90;90.60;23.80;99839.00;;;;340060;28;91115;-88
2022/06/13 00:43:18;;;;;;;;;;;23.90;90.50;23.80;99842.00;;;;339095;28;82553;-89
2022/06/13 00:43:29;;;;;;;;;;;23.90;90.50;23.60;99835.00;;;;338771;28;88035;-89
2022/06/13 00:43:42;;;;;;;;;;;23.80;90.60;23.70;99839.00;;;;346037;28;82309;-89
2022/06/13 00:43:54;;;;;;;;;;;23.80;90.60;23.70;99844.00;;;;338490;28;92258;-88
2022/06/13 00:44:18;;;;;;;;;;;23.80;90.60;23.70;99848.00;;;;337758;28;83444;-89
2022/06/13 00:44:33;;;;;;;;;;;23.80;90.90;23.60;99840.00;;;;344088;28;92552;-88
2022/06/13 00:45:07;;;;;;;;;;;23.80;90.70;23.50;99839.00;;;;345846;28;83401;-89
2022/06/13 00:45:23;;;;;;;;;;;23.80;90.80;23.50;99841.00;;;;345499;28;91482;-88
2022/06/13 00:45:36;;;;;;;;;;;23.80;91.00;23.60;99841.00;;;;344986;28;83557;-89
2022/06/13 00:45:47;;;;;;;;;;;23.70;90.80;23.70;99842.00;;;;340024;28;87119;-89
2022/06/13 00:45:59;;;;;;;;;;;23.80;90.80;23.60;99841.00;;;;340351;28;83678;-89
2022/06/13 00:46:36;;;;;;;;;;;23.80;90.90;23.60;99847.00;;;;340130;28;89175;-89
2022/06/13 00:46:48;;;;;;;;;;;23.70;90.90;23.50;99839.00;;;;341826;28;83302;-88
2022/06/13 00:47:00;;;;;;;;;;;23.70;91.00;23.60;99840.00;;;;338721;28;89242;-88
2022/06/13 00:47:13;;;;;;;;;;;23.70;90.80;23.60;99843.00;;;;339082;28;82588;-88
2022/06/13 00:47:24;;;;;;;;;;;23.70;90.80;23.50;99837.00;;;;338622;28;92140;-89
2022/06/13 00:47:37;;;;;;;;;;;23.60;91.00;23.60;99846.00;;;;337753;28;82600;-89
2022/06/13 00:47:51;;;;;;;;;;;23.70;91.00;23.60;99844.00;;;;338698;28;90286;-88
2022/06/13 00:48:03;;;;;;;;;;;23.70;91.00;23.50;99848.00;;;;338908;28;83471;-88
2022/06/13 00:48:15;;;;;;;;;;;23.60;91.10;23.50;99846.00;;;;337424;28;90386;-89
2022/06/13 00:48:28;;;;;;;;;;;23.60;91.00;23.50;99845.00;;;;339918;28;82593;-89
2022/06/13 00:48:40;;;;;;;;;;;23.60;91.20;23.40;99849.00;;;;343408;28;91620;-88
2022/06/13 00:49:07;;;;;;;;;;;23.60;91.20;23.50;99848.00;;;;342220;28;82465;-89
2022/06/13 00:49:37;;;;;;;;;;;23.60;91.20;23.60;99848.00;;;;338675;28;88262;-89
2022/06/13 00:49:49;;;;;;;;;;;23.60;91.10;23.60;99848.00;;;;340461;28;83607;-89
2022/06/13 00:50:01;;;;;;;;;;;23.70;91.10;23.60;99843.00;;;;337131;28;91541;-89
2022/06/13 00:50:17;;;;;;;;;;;23.60;91.10;23.50;99843.00;;;;341868;28;82583;-88
2022/06/13 00:50:34;;;;;;;;;;;23.60;91.20;23.50;99847.00;;;;338636;28;91214;-89
2022/06/13 00:50:55;;;;;;;;;;;23.60;91.30;23.60;99846.00;;;;341767;28;83306;-89
2022/06/13 00:51:06;;;;;;;;;;;23.60;91.10;23.60;99842.00;;;;338727;28;91875;-89
2022/06/13 00:51:18;;;;;;;;;;;23.60;91.10;23.50;99843.00;;;;340405;28;83497;-89
2022/06/13 00:51:30;;;;;;;;;;;23.60;91.30;23.50;99844.00;;;;342577;28;90226;-89
2022/06/13 00:51:47;;;;;;;;;;;23.60;91.30;23.50;99835.00;;;;347133;28;82614;-88
2022/06/13 00:52:05;;;;;;;;;;;23.60;91.30;23.40;99847.00;;;;338510;28;93061;-88
2022/06/13 00:52:28;;;;;;;;;;;23.60;91.30;23.50;99841.00;;;;338881;28;83218;-89
2022/06/13 00:52:49;;;;;;;;;;;23.60;91.40;23.40;99849.00;;;;337204;28;91318;-89
2022/06/13 00:53:11;;;;;;;;;;;23.60;91.30;23.40;99848.00;;;;340356;28;82396;-89
2022/06/13 00:53:26;;;;;;;;;;;23.60;91.40;23.50;99839.00;;;;338638;28;90187;-89
2022/06/13 00:53:37;;;;;;;;;;;23.50;91.30;23.50;99843.00;;;;339119;28;82993;-89
2022/06/13 00:53:50;;;;;;;;;;;23.50;91.30;23.50;99838.00;;;;338618;28;90641;-88
2022/06/13 00:54:02;;;;;;;;;;;23.50;91.40;23.50;99839.00;;;;340256;28;83537;-89
2022/06/13 00:54:15;;;;;;;;;;;23.50;91.30;23.50;99842.00;;;;338674;28;91460;-89
2022/06/13 00:54:27;;;;;;;;;;;23.50;91.30;23.50;99840.00;;;;343017;28;83542;-88
2022/06/13 00:54:39;;;;;;;;;;;23.50;91.30;23.50;99834.00;;;;341278;28;91246;-89
2022/06/13 00:54:51;;;;;;;;;;;23.50;91.40;23.50;99838.00;;;;340518;28;83383;-89
2022/06/13 00:55:02;;;;;;;;;;;23.50;91.40;23.50;99837.00;;;;339874;28;91281;-89
2022/06/13 00:55:17;;;;;;;;;;;23.50;91.30;23.30;99846.00;;;;338982;28;83066;-89
2022/06/13 00:55:33;;;;;;;;;;;23.50;91.50;23.30;99844.00;;;;338286;28;91658;-89
2022/06/13 00:55:48;;;;;;;;;;;23.50;91.60;23.20;99836.00;;;;340456;28;82466;-88
2022/06/13 00:56:03;;;;;;;;;;;23.50;91.70;23.30;99843.00;;;;339906;28;90764;-89
2022/06/13 00:56:16;;;;;;;;;;;23.50;91.70;23.30;99843.00;;;;339077;28;83490;-88
2022/06/13 00:56:29;;;;;;;;;;;23.50;91.60;23.20;99841.00;;;;338753;28;91378;-89
2022/06/13 00:56:41;;;;;;;;;;;23.40;91.70;23.30;99843.00;;;;340325;28;82449;-88
2022/06/13 00:56:52;;;;;;;;;;;23.40;91.70;23.30;99840.00;;;;340021;28;90778;-89
2022/06/13 00:57:05;;;;;;;;;;;23.40;91.80;23.40;99842.00;;;;340432;28;83485;-89
2022/06/13 00:57:19;;;;;;;;;;;23.40;91.70;23.30;99844.00;;;;341283;28;92469;-88
2022/06/13 00:57:31;;;;;;;;;;;23.50;91.80;23.30;99840.00;;;;340288;28;83266;-89
2022/06/13 00:57:42;;;;;;;;;;;23.40;91.70;23.30;99840.00;;;;341174;28;91616;-88
2022/06/13 00:57:54;;;;;;;;;;;23.40;91.70;23.40;99841.00;;;;337745;28;82667;-89
2022/06/13 00:58:06;;;;;;;;;;;23.40;91.80;23.30;99846.00;;;;338365;28;90207;-89
2022/06/13 00:58:18;;;;;;;;;;;23.40;91.80;23.40;99849.00;;;;341802;28;83245;-88
2022/06/13 00:58:33;;;;;;;;;;;23.40;91.70;23.30;99848.00;;;;339943;28;91502;-89
2022/06/13 00:58:58;;;;;;;;;;;23.40;91.80;23.40;99846.00;;;;336532;28;83476;-88
2022/06/13 00:59:12;;;;;;;;;;;23.40;91.90;23.20;99833.00;;;;338642;28;91264;-89
2022/06/13 00:59:24;;;;;;;;;;;23.40;91.80;23.20;99836.00;;;;339187;28;82547;-89
2022/06/13 00:59:36;;;;;;;;;;;23.40;91.80;23.20;99836.00;;;;338598;28;92722;-89
2022/06/13 00:59:50;;;;;;;;;;;23.40;91.80;23.30;99844.00;;;;337884;28;83357;-88
2022/06/13 01:00:05;;;;;;;;;;;23.40;91.80;23.30;99844.00;;;;341193;28;92201;-88
2022/06/13 01:00:17;;;;;;;;;;;23.40;91.90;23.10;99841.00;;;;339188;28;83468;-88
2022/06/13 01:00:29;;;;;;;;;;;23.30;92.10;23.20;99837.00;;;;344581;28;91343;-89
2022/06/13 01:00:42;;;;;;;;;;;23.30;91.90;23.20;99837.00;;;;340067;28;83630;-89
2022/06/13 01:00:55;;;;;;;;;;;23.30;91.90;23.30;99843.00;;;;337821;28;91883;-88
2022/06/13 01:01:07;;;;;;;;;;;23.30;92.00;23.20;99836.00;;;;339106;28;83347;-88
2022/06/13 01:01:20;;;;;;;;;;;23.30;92.10;23.20;99843.00;;;;339959;28;89376;-88
2022/06/13 01:01:32;;;;;;;;;;;23.30;92.10;23.30;99835.00;;;;336356;28;83470;-89
2022/06/13 01:01:44;;;;;;;;;;;23.30;91.90;23.30;99838.00;;;;338551;28;93229;-89
2022/06/13 01:01:57;;;;;;;;;;;23.30;91.90;23.30;99838.00;;;;341682;28;82522;-88
2022/06/13 01:02:09;;;;;;;;;;;23.30;91.90;23.40;99833.00;;;;338605;28;90297;-89
2022/06/13 01:02:21;;;;;;;;;;;23.30;91.90;23.20;99837.00;;;;339164;28;83386;-88
2022/06/13 01:02:33;;;;;;;;;;;23.30;92.10;23.10;99845.00;;;;339935;28;90014;-88
2022/06/13 01:02:45;;;;;;;;;;;23.30;92.20;23.10;99834.00;;;;339108;28;83473;-88
2022/06/13 01:02:57;;;;;;;;;;;23.30;92.10;23.20;99843.00;;;;339955;28;91771;-89
2022/06/13 01:03:10;;;;;;;;;;;23.30;92.10;23.20;99838.00;;;;337653;28;83519;-88
2022/06/13 01:03:24;;;;;;;;;;;23.30;92.10;23.20;99841.00;;;;340854;28;91202;-88